Terminal Aerodrome Forecast
Issued by NWS

Current Version | Previous Version | Text Only | Print | Product List | Glossary Off
Versions: 1 2 3 4 5 6 7 8 9 10 11 12 13 14 15 16 17 18 19 20 21

426
FTUS41 KILN 170857 AAC
TAFLCK
TAF AMD
KLCK 170857Z 1709/1806 00000KT 1/4SM FG OVC002
     FM171300 19003KT P6SM FEW060
     FM180000 00000KT P6SM SCT250=

USA.gov is the U.S. government's official web portal to all federal, state and local government web resources and services.